createdAt,value
2023-10-16T00:15:05.936Z,4.4
2023-10-16T00:25:07.718Z,4.5
2023-10-16T00:55:14.069Z,4.3
2023-10-16T01:05:16.288Z,4.2
2023-10-16T01:25:20.513Z,4
2023-10-16T01:35:23.089Z,3.9
2023-10-16T01:45:25.654Z,3.7
2023-10-16T02:05:29.330Z,3.8
2023-10-16T02:15:31.021Z,3.8
2023-10-16T02:25:33.757Z,3.7
2023-10-16T02:35:35.367Z,3.5
2023-10-16T02:45:37.755Z,3.5
2023-10-16T02:55:39.957Z,3.6
2023-10-16T03:05:42.399Z,3.3
2023-10-16T03:15:45.064Z,3.4
2023-10-16T03:25:46.854Z,3.5
2023-10-16T03:35:49.465Z,3.5
2023-10-16T03:45:51.774Z,3.7
2023-10-16T03:55:54.393Z,3.6
2023-10-16T04:46:04.638Z,3.4
2023-10-16T04:56:06.587Z,3.3
2023-10-16T05:17:38.504Z,3.4
2023-10-16T05:36:23.322Z,3.7
2023-10-16T05:46:25.629Z,3.7
2023-10-16T08:37:02.188Z,6.5
2023-10-16T08:47:03.965Z,6.9
2023-10-16T08:57:06.313Z,7.1
2023-10-16T09:07:08.671Z,7.4
2023-10-16T09:17:10.304Z,7.6
2023-10-16T09:27:12.036Z,8.1
2023-10-16T09:47:15.994Z,8
2023-10-16T09:57:20.143Z,9.5
2023-10-16T10:07:20.556Z,9.3
2023-10-16T10:17:22.501Z,9.1
2023-10-16T10:27:24.219Z,9.7
2023-10-16T10:37:26.257Z,10.2
2023-10-16T10:47:28.429Z,10.9
2023-10-16T10:57:30.321Z,10.6
2023-10-16T11:07:32.419Z,11
2023-10-16T11:17:34.215Z,10.7
2023-10-16T11:27:36.316Z,10.6
2023-10-16T11:37:38.101Z,10.3
2023-10-16T11:47:40.775Z,9.8
2023-10-16T12:07:45.106Z,10.4
2023-10-16T12:17:47.204Z,10.4
2023-10-16T12:27:48.994Z,10.6
2023-10-16T12:37:50.986Z,10.9
2023-10-16T12:47:55.060Z,11.1
2023-10-16T12:57:55.725Z,11.1
2023-10-16T13:07:58.457Z,11
2023-10-16T13:18:00.762Z,11.1
2023-10-16T13:28:02.479Z,11.1
2023-10-16T13:38:04.338Z,11.2
2023-10-16T13:48:06.876Z,11.4
2023-10-16T13:58:08.698Z,11.2
2023-10-16T14:08:10.478Z,11.2
2023-10-16T14:18:12.801Z,11.2
2023-10-16T14:28:14.940Z,11.3
2023-10-16T14:38:16.643Z,11.1
2023-10-16T14:58:35.741Z,10.9
2023-10-16T15:08:23.518Z,10.4
2023-10-16T15:28:41.763Z,10.5
2023-10-16T15:38:29.848Z,10.4
2023-10-16T15:48:32.242Z,10.2
2023-10-16T15:58:34.529Z,9.9
2023-10-16T16:08:36.686Z,9.7
2023-10-16T16:28:40.943Z,9.2
2023-10-16T16:38:43.318Z,8.7
2023-10-16T16:48:45.760Z,8.6
2023-10-16T16:58:47.989Z,8.3
2023-10-16T17:08:50.025Z,8.2
2023-10-16T17:18:52.396Z,8.2
2023-10-16T17:28:54.046Z,8
2023-10-16T17:48:57.988Z,7.4
2023-10-16T17:59:00.288Z,7.3
2023-10-16T18:09:02.374Z,7.2
2023-10-16T18:19:04.159Z,7.1
2023-10-16T18:29:06.131Z,7.4
2023-10-16T18:39:08.484Z,7.1
2023-10-16T18:49:10.143Z,6.9
2023-10-16T18:59:12.665Z,6.7
2023-10-16T19:09:14.629Z,6.6
2023-10-16T19:19:16.580Z,6.4
2023-10-16T19:29:19.145Z,6.4
2023-10-16T19:39:21.516Z,6.3
2023-10-16T19:49:23.261Z,6.2
2023-10-16T19:59:25.209Z,6.3
2023-10-16T20:09:27.212Z,6.1
2023-10-16T20:19:29.467Z,6.2
2023-10-16T20:29:32.142Z,6
2023-10-16T20:39:33.971Z,6.2
2023-10-16T20:49:36.391Z,6.1
2023-10-16T20:59:38.478Z,6
2023-10-16T21:09:40.721Z,6
2023-10-16T21:19:42.632Z,5.8
2023-10-16T21:29:45.089Z,5.7
2023-10-16T21:39:47.690Z,5.8
2023-10-16T21:49:49.417Z,5.7
2023-10-16T21:59:51.834Z,5.7
2023-10-16T22:09:54.260Z,5.6
2023-10-16T22:19:56.021Z,5.4
2023-10-16T22:29:58.560Z,5.3
2023-10-16T22:40:00.743Z,5.2
2023-10-16T22:50:03.322Z,4.7
2023-10-16T23:00:05.860Z,5.5
2023-10-16T23:10:08.095Z,4.9
2023-10-16T23:20:10.457Z,4.6
2023-10-16T23:30:12.626Z,4.6
2023-10-16T23:40:14.451Z,4.4
2023-10-16T23:50:16.842Z,4.4
